Westport, Pennsylvania
Current Conditions -  °F | °C
As of 6:53 PM on Wednesday 28 Jan 2015 (Local Time) from KUNV Reporting Station
Clear Clear  
Wind Chill: 10°   Ceiling: Unl
Heat Index: 21°   Visibility: 10mi
Dew Point:   Wind: 10mph
Humidity: 54%   Direction: 280°W
Pressure: 30.26"   Gusts: NA
Location:  41.3°N, 77.84°W
Report Text: KUNV 282353Z 28009KT 10SM SKC M06/M14 A3026
Loading
Personal Weather Stations






























Interactive Weather Map New forecast layout! Learn more

10-Day Weather Forecast

Advertisements
Track Severe Weather on mobile